Time;durP1;ratioP1;P1;durP2;ratioP2;P2;SDS_P1;SDS_P2;PMS_P1;PMS_P2;Temp;Humidity;BMP_temperature;BMP_pressure;BME280_temperature;BME280_humidity;BME280_pressure;Samples;Min_cycle;Max_cycle;Signal;HPM_P1;HPM_P2
2021/10/04 00:00:04;;;;;;;;;;;13.50;99.90;13.70;99690.00;;;;342830;28;92080;-93
2021/10/04 00:00:16;;;;;;;;;;;13.60;99.90;13.70;99695.00;;;;344525;28;83448;-93
2021/10/04 00:00:28;;;;;;;;;;;13.50;99.90;13.80;99693.00;;;;344176;28;91589;-93
2021/10/04 00:00:40;;;;;;;;;;;13.50;99.90;13.80;99694.00;;;;343215;28;83299;-93
2021/10/04 00:00:53;;;;;;;;;;;13.50;99.90;13.80;99697.00;;;;341756;28;88094;-93
2021/10/04 00:01:05;;;;;;;;;;;13.50;99.90;13.80;99687.00;;;;343379;28;83425;-93
2021/10/04 00:01:17;;;;;;;;;;;13.50;99.90;13.90;99692.00;;;;343001;28;90268;-93
2021/10/04 00:01:29;;;;;;;;;;;13.50;99.90;13.80;99694.00;;;;344653;28;83408;-92
2021/10/04 00:01:41;;;;;;;;;;;13.50;99.90;13.80;99694.00;;;;342915;28;92011;-93
2021/10/04 00:01:53;;;;;;;;;;;13.50;99.90;13.80;99691.00;;;;340700;28;82596;-93
2021/10/04 00:02:06;;;;;;;;;;;13.50;99.90;13.80;99694.00;;;;342899;28;91525;-93
2021/10/04 00:02:18;;;;;;;;;;;13.50;99.90;13.80;99691.00;;;;343328;28;83388;-93
2021/10/04 00:02:30;;;;;;;;;;;13.60;99.90;13.80;99698.00;;;;342924;28;91974;-93
2021/10/04 00:02:42;;;;;;;;;;;13.60;99.90;13.80;99700.00;;;;344705;28;83368;-92
2021/10/04 00:02:55;;;;;;;;;;;13.50;99.90;13.80;99694.00;;;;344352;28;91186;-93
2021/10/04 00:03:07;;;;;;;;;;;13.50;99.90;13.80;99697.00;;;;344516;28;82735;-93
2021/10/04 00:03:18;;;;;;;;;;;13.50;99.90;13.70;99697.00;;;;344280;28;91508;-93
2021/10/04 00:03:30;;;;;;;;;;;13.50;99.90;13.70;99692.00;;;;344608;28;83353;-93
2021/10/04 00:03:42;;;;;;;;;;;13.50;99.90;13.60;99698.00;;;;344424;28;90431;-93
2021/10/04 00:03:55;;;;;;;;;;;13.50;99.90;13.70;99696.00;;;;341946;28;83928;-92
2021/10/04 00:04:06;;;;;;;;;;;13.50;99.90;13.80;99697.00;;;;344052;28;92675;-93
2021/10/04 00:04:18;;;;;;;;;;;13.50;99.90;13.80;99694.00;;;;343356;28;83437;-93
2021/10/04 00:04:30;;;;;;;;;;;13.50;99.90;13.70;99687.00;;;;347059;28;91589;-93
2021/10/04 00:04:42;;;;;;;;;;;13.50;99.90;13.60;99703.00;;;;344659;28;83415;-93
2021/10/04 00:04:54;;;;;;;;;;;13.50;99.90;13.80;99692.00;;;;345618;28;91458;-93
2021/10/04 00:05:07;;;;;;;;;;;13.50;99.90;13.80;99701.00;;;;343341;28;83345;-93
2021/10/04 00:05:18;;;;;;;;;;;13.50;99.90;13.80;99693.00;;;;342952;28;92037;-93
2021/10/04 00:05:30;;;;;;;;;;;13.50;99.90;13.80;99694.00;;;;346124;28;83314;-93
2021/10/04 00:05:42;;;;;;;;;;;13.50;99.90;13.80;99687.00;;;;342901;28;91903;-93
2021/10/04 00:05:54;;;;;;;;;;;13.50;99.90;13.80;99699.00;;;;343432;28;83347;-93
2021/10/04 00:06:06;;;;;;;;;;;13.50;99.90;13.80;99688.00;;;;345540;28;92282;-93
2021/10/04 00:06:18;;;;;;;;;;;13.50;99.90;13.80;99694.00;;;;342021;28;82456;-93
2021/10/04 00:06:30;;;;;;;;;;;13.50;99.90;13.80;99690.00;;;;344225;28;91721;-93
2021/10/04 00:06:42;;;;;;;;;;;13.50;99.90;13.80;99686.00;;;;346131;28;82478;-94
2021/10/04 00:06:53;;;;;;;;;;;13.50;99.90;13.80;99687.00;;;;344261;28;90553;-93
2021/10/04 00:07:05;;;;;;;;;;;13.60;99.90;13.70;99690.00;;;;343350;28;83311;-93
2021/10/04 00:07:17;;;;;;;;;;;13.50;99.90;13.80;99682.00;;;;344222;28;91918;-93
2021/10/04 00:07:29;;;;;;;;;;;13.50;99.90;13.90;99688.00;;;;345988;28;83445;-93
2021/10/04 00:07:41;;;;;;;;;;;13.60;99.90;13.90;99690.00;;;;344300;28;91589;-93
2021/10/04 00:07:53;;;;;;;;;;;13.50;99.90;13.90;99686.00;;;;343372;28;83481;-93
2021/10/04 00:08:05;;;;;;;;;;;13.60;99.90;13.90;99687.00;;;;342895;28;88533;-93
2021/10/04 00:08:16;;;;;;;;;;;13.60;99.90;13.80;99687.00;;;;343408;28;83429;-93
2021/10/04 00:08:28;;;;;;;;;;;13.60;99.90;13.80;99687.00;;;;344330;28;91698;-93
2021/10/04 00:08:40;;;;;;;;;;;13.60;99.90;13.80;99683.00;;;;344679;28;82527;-93
2021/10/04 00:08:52;;;;;;;;;;;13.50;99.90;13.80;99683.00;;;;345672;28;91061;-93
2021/10/04 00:09:04;;;;;;;;;;;13.60;99.90;13.80;99682.00;;;;343386;28;82401;-93
2021/10/04 00:09:16;;;;;;;;;;;13.60;99.90;13.80;99675.00;;;;344101;28;90463;-93
2021/10/04 00:09:28;;;;;;;;;;;13.60;99.90;13.80;99685.00;;;;344644;28;82607;-93
2021/10/04 00:09:39;;;;;;;;;;;13.60;99.90;13.80;99675.00;;;;344265;28;90600;-93
2021/10/04 00:09:51;;;;;;;;;;;13.50;99.90;13.80;99677.00;;;;343343;28;82520;-93
2021/10/04 00:10:08;;;;;;;;;;;13.50;99.90;13.60;99679.00;;;;342740;28;92751;-93
2021/10/04 00:10:21;;;;;;;;;;;13.50;99.90;13.50;99671.00;;;;345997;28;83363;-93
2021/10/04 00:10:33;;;;;;;;;;;13.50;99.90;13.50;99679.00;;;;341375;28;92028;-93
2021/10/04 00:10:45;;;;;;;;;;;13.50;99.90;13.40;99674.00;;;;346079;28;83519;-93
2021/10/04 00:10:57;;;;;;;;;;;13.50;99.90;13.40;99672.00;;;;345656;28;91297;-93
2021/10/04 00:11:08;;;;;;;;;;;13.50;99.90;13.60;99678.00;;;;346092;28;83395;-93
2021/10/04 00:11:20;;;;;;;;;;;13.40;99.90;13.70;99677.00;;;;341553;28;91889;-93
2021/10/04 00:11:32;;;;;;;;;;;13.50;99.90;13.80;99681.00;;;;344717;28;83504;-93
2021/10/04 00:11:44;;;;;;;;;;;13.50;99.90;13.70;99673.00;;;;343056;28;88057;-93
2021/10/04 00:11:56;;;;;;;;;;;13.50;99.90;13.70;99673.00;;;;343420;28;82456;-93
2021/10/04 00:12:08;;;;;;;;;;;13.50;99.90;13.80;99665.00;;;;344074;28;92601;-93
2021/10/04 00:12:20;;;;;;;;;;;13.50;99.90;13.70;99671.00;;;;346192;28;82415;-93
2021/10/04 00:12:31;;;;;;;;;;;13.50;99.90;13.70;99672.00;;;;344330;28;91466;-93
2021/10/04 00:12:43;;;;;;;;;;;13.40;99.90;13.60;99669.00;;;;344626;28;83534;-93
2021/10/04 00:12:56;;;;;;;;;;;13.50;99.90;13.70;99666.00;;;;345651;28;90356;-93
2021/10/04 00:13:08;;;;;;;;;;;13.50;99.90;13.70;99669.00;;;;344673;28;83237;-93
2021/10/04 00:13:20;;;;;;;;;;;13.50;99.90;13.60;99666.00;;;;344294;28;91144;-93
2021/10/04 00:13:32;;;;;;;;;;;13.40;99.90;13.60;99670.00;;;;343119;28;83531;-93
2021/10/04 00:13:44;;;;;;;;;;;13.40;99.90;13.60;99671.00;;;;342914;28;90592;-93
2021/10/04 00:13:56;;;;;;;;;;;13.40;99.90;13.70;99665.00;;;;344799;28;83439;-93
2021/10/04 00:14:08;;;;;;;;;;;13.40;99.90;13.80;99661.00;;;;344048;28;92156;-93
2021/10/04 00:14:21;;;;;;;;;;;13.50;99.90;13.80;99664.00;;;;343411;28;83409;-93
2021/10/04 00:14:32;;;;;;;;;;;13.50;99.90;13.70;99664.00;;;;341560;28;90798;-93
2021/10/04 00:14:45;;;;;;;;;;;13.50;99.90;13.60;99668.00;;;;344553;28;83512;-93
2021/10/04 00:14:57;;;;;;;;;;;13.40;99.90;13.60;99657.00;;;;344367;28;90185;-93
2021/10/04 00:15:10;;;;;;;;;;;13.50;99.90;13.60;99660.00;;;;343365;28;82576;-93
2021/10/04 00:15:22;;;;;;;;;;;13.40;99.90;13.60;99659.00;;;;342909;28;91395;-93
2021/10/04 00:15:34;;;;;;;;;;;13.50;99.90;13.60;99659.00;;;;344458;28;83565;-93
2021/10/04 00:15:46;;;;;;;;;;;13.40;99.90;13.50;99658.00;;;;344374;28;90514;-93
2021/10/04 00:15:58;;;;;;;;;;;13.40;99.90;13.50;99652.00;;;;344813;28;83364;-93
2021/10/04 00:16:10;;;;;;;;;;;13.40;99.90;13.50;99649.00;;;;345532;28;92167;-93
2021/10/04 00:16:22;;;;;;;;;;;13.40;99.90;13.60;99660.00;;;;343251;28;83277;-93
2021/10/04 00:16:34;;;;;;;;;;;13.40;99.90;13.70;99655.00;;;;344218;28;91037;-93
2021/10/04 00:16:46;;;;;;;;;;;13.40;99.90;13.80;99652.00;;;;342004;28;83523;-93
2021/10/04 00:16:58;;;;;;;;;;;13.40;99.90;13.90;99649.00;;;;345712;28;90170;-93
2021/10/04 00:17:10;;;;;;;;;;;13.40;99.90;13.90;99652.00;;;;343292;28;83850;-93
2021/10/04 00:17:22;;;;;;;;;;;13.50;99.90;14.00;99650.00;;;;342784;28;91416;-93
2021/10/04 00:17:34;;;;;;;;;;;13.50;99.90;13.90;99652.00;;;;344721;28;82395;-93
2021/10/04 00:17:46;;;;;;;;;;;13.50;99.90;13.70;99646.00;;;;344738;28;90349;-93
2021/10/04 00:17:58;;;;;;;;;;;13.50;99.90;13.70;99651.00;;;;344761;28;82493;-94
2021/10/04 00:18:10;;;;;;;;;;;13.50;99.90;13.80;99647.00;;;;342906;28;92177;-93
2021/10/04 00:18:22;;;;;;;;;;;13.50;99.90;13.70;99645.00;;;;343256;28;83446;-93
2021/10/04 00:18:34;;;;;;;;;;;13.50;99.90;13.70;99650.00;;;;344284;28;89125;-93
2021/10/04 00:18:46;;;;;;;;;;;13.50;99.90;13.70;99646.00;;;;344349;28;83539;-93
2021/10/04 00:18:58;;;;;;;;;;;13.50;99.90;13.70;99646.00;;;;345408;28;90675;-93
2021/10/04 00:19:10;;;;;;;;;;;13.40;99.90;13.80;99639.00;;;;344693;28;83299;-93
2021/10/04 00:19:22;;;;;;;;;;;13.50;99.90;13.80;99643.00;;;;342866;28;90200;-93
2021/10/04 00:19:34;;;;;;;;;;;13.50;99.90;13.70;99653.00;;;;343378;28;82523;-93
2021/10/04 00:19:45;;;;;;;;;;;13.50;99.90;13.70;99649.00;;;;342989;28;90323;-93
2021/10/04 00:19:57;;;;;;;;;;;13.40;99.90;13.70;99638.00;;;;343349;28;83342;-93
2021/10/04 00:20:10;;;;;;;;;;;13.50;99.90;13.70;99641.00;;;;344095;28;92601;-93
2021/10/04 00:20:22;;;;;;;;;;;13.50;99.90;13.70;99645.00;;;;343373;28;83444;-93
2021/10/04 00:20:34;;;;;;;;;;;13.40;99.90;13.70;99639.00;;;;341451;28;90695;-93
2021/10/04 00:20:47;;;;;;;;;;;13.40;99.90;13.60;99641.00;;;;343283;28;83468;-93
2021/10/04 00:20:59;;;;;;;;;;;13.40;99.90;13.60;99637.00;;;;344345;28;90026;-93
2021/10/04 00:21:14;;;;;;;;;;;13.40;99.90;13.70;99638.00;;;;343424;28;82465;-93
2021/10/04 00:21:26;;;;;;;;;;;13.50;99.90;13.70;99636.00;;;;341477;28;90659;-93
2021/10/04 00:21:37;;;;;;;;;;;13.40;99.90;13.80;99631.00;;;;341979;28;83447;-93
2021/10/04 00:21:49;;;;;;;;;;;13.40;99.90;13.80;99640.00;;;;345621;28;90744;-93
2021/10/04 00:22:02;;;;;;;;;;;13.50;99.90;13.80;99634.00;;;;346060;28;83330;-93
2021/10/04 00:22:18;;;;;;;;;;;13.50;99.90;13.80;99644.00;;;;342879;28;91838;-93
2021/10/04 00:22:36;;;;;;;;;;;13.50;99.90;13.70;99641.00;;;;344630;28;82524;-93
2021/10/04 00:22:48;;;;;;;;;;;13.50;99.90;13.70;99639.00;;;;341535;28;90448;-93
2021/10/04 00:23:00;;;;;;;;;;;13.50;99.90;13.70;99635.00;;;;343250;28;83452;-92
2021/10/04 00:23:12;;;;;;;;;;;13.50;99.90;13.70;99638.00;;;;342938;28;91468;-93
2021/10/04 00:23:24;;;;;;;;;;;13.50;99.90;13.70;99639.00;;;;341934;28;83397;-92
2021/10/04 00:23:36;;;;;;;;;;;13.50;99.90;13.70;99639.00;;;;344317;28;91619;-93
2021/10/04 00:23:48;;;;;;;;;;;13.50;99.90;13.60;99643.00;;;;343280;28;83469;-93
2021/10/04 00:24:00;;;;;;;;;;;13.50;99.90;13.60;99636.00;;;;344342;28;91265;-93
2021/10/04 00:24:12;;;;;;;;;;;13.50;99.90;13.50;99641.00;;;;344758;28;82519;-93
2021/10/04 00:24:24;;;;;;;;;;;13.50;99.90;13.60;99641.00;;;;344113;28;92807;-93
2021/10/04 00:24:36;;;;;;;;;;;13.40;99.90;13.60;99642.00;;;;344659;28;83320;-93
2021/10/04 00:24:48;;;;;;;;;;;13.50;99.90;13.60;99638.00;;;;342831;28;91014;-93
2021/10/04 00:25:03;;;;;;;;;;;13.50;99.90;13.70;99640.00;;;;343409;28;83319;-93
2021/10/04 00:25:15;;;;;;;;;;;13.50;99.90;13.80;99636.00;;;;342877;28;90891;-93
2021/10/04 00:25:27;;;;;;;;;;;13.40;99.90;13.60;99641.00;;;;342957;28;82685;-94
2021/10/04 00:25:39;;;;;;;;;;;13.50;99.90;13.60;99636.00;;;;340171;28;91251;-93
2021/10/04 00:25:50;;;;;;;;;;;13.50;99.90;13.70;99637.00;;;;343270;28;83796;-92
2021/10/04 00:26:02;;;;;;;;;;;13.50;99.90;13.70;99628.00;;;;342981;28;90276;-93
2021/10/04 00:26:14;;;;;;;;;;;13.50;99.90;13.60;99635.00;;;;343352;28;82552;-93
2021/10/04 00:26:26;;;;;;;;;;;13.50;99.90;13.70;99639.00;;;;341508;28;91978;-93
2021/10/04 00:26:38;;;;;;;;;;;13.40;99.90;13.80;99637.00;;;;342026;28;83478;-93
2021/10/04 00:26:49;;;;;;;;;;;13.50;99.90;13.70;99636.00;;;;340094;28;91422;-93
2021/10/04 00:27:01;;;;;;;;;;;13.40;99.90;13.80;99634.00;;;;341956;28;82615;-93
2021/10/04 00:27:13;;;;;;;;;;;13.50;99.90;13.90;99641.00;;;;344068;28;90605;-93
2021/10/04 00:27:25;;;;;;;;;;;13.50;99.90;13.90;99641.00;;;;345888;28;83584;-93
2021/10/04 00:27:37;;;;;;;;;;;13.50;99.90;13.80;99629.00;;;;344111;28;91287;-93
2021/10/04 00:27:49;;;;;;;;;;;13.50;99.90;13.80;99627.00;;;;343270;28;83427;-93
2021/10/04 00:28:01;;;;;;;;;;;13.50;99.90;13.60;99638.00;;;;344211;28;91276;-93
2021/10/04 00:28:13;;;;;;;;;;;13.50;99.90;13.60;99632.00;;;;343420;28;82464;-93
2021/10/04 00:28:25;;;;;;;;;;;13.40;99.90;13.80;99637.00;;;;344204;28;92830;-93
2021/10/04 00:28:37;;;;;;;;;;;13.40;99.90;13.80;99632.00;;;;341850;28;83320;-93
2021/10/04 00:28:48;;;;;;;;;;;13.50;99.90;13.80;99630.00;;;;344149;28;91269;-93
2021/10/04 00:29:00;;;;;;;;;;;13.50;99.90;13.80;99636.00;;;;344646;28;83396;-93
2021/10/04 00:29:12;;;;;;;;;;;13.50;99.90;13.90;99625.00;;;;341512;28;91801;-94
2021/10/04 00:29:24;;;;;;;;;;;13.50;99.90;13.80;99626.00;;;;343232;28;82405;-93
2021/10/04 00:29:36;;;;;;;;;;;13.50;99.90;13.70;99635.00;;;;342937;28;90445;-93
2021/10/04 00:29:48;;;;;;;;;;;13.50;99.90;13.60;99629.00;;;;344782;28;83367;-93
2021/10/04 00:30:05;;;;;;;;;;;13.50;99.90;13.70;99628.00;;;;342922;28;91862;-92
2021/10/04 00:30:17;;;;;;;;;;;13.40;99.90;13.60;99629.00;;;;346167;28;82453;-93
2021/10/04 00:30:29;;;;;;;;;;;13.40;99.90;13.60;99625.00;;;;344137;28;92340;-93
2021/10/04 00:30:41;;;;;;;;;;;13.40;99.90;13.70;99622.00;;;;344635;28;83493;-93
2021/10/04 00:30:53;;;;;;;;;;;13.40;99.90;13.70;99617.00;;;;345630;28;92224;-93
2021/10/04 00:31:05;;;;;;;;;;;13.40;99.90;13.70;99623.00;;;;343289;28;82523;-93
2021/10/04 00:31:17;;;;;;;;;;;13.40;99.90;13.60;99630.00;;;;345634;28;91488;-93
2021/10/04 00:31:29;;;;;;;;;;;13.50;99.90;13.70;99621.00;;;;344505;28;83538;-93
2021/10/04 00:31:41;;;;;;;;;;;13.40;99.90;13.70;99621.00;;;;345687;28;90378;-93
2021/10/04 00:31:53;;;;;;;;;;;13.40;99.90;13.60;99626.00;;;;347556;28;83309;-93
2021/10/04 00:32:05;;;;;;;;;;;13.40;99.90;13.50;99621.00;;;;347022;28;91273;-93
2021/10/04 00:32:18;;;;;;;;;;;13.40;99.90;13.40;99617.00;;;;343317;28;83416;-93
2021/10/04 00:32:29;;;;;;;;;;;13.50;99.90;13.50;99619.00;;;;345606;28;92328;-93
2021/10/04 00:32:43;;;;;;;;;;;13.40;99.90;13.50;99620.00;;;;345999;28;83390;-93
2021/10/04 00:32:54;;;;;;;;;;;13.40;99.90;13.40;99613.00;;;;340266;28;90290;-93
2021/10/04 00:33:07;;;;;;;;;;;13.40;99.90;13.30;99621.00;;;;343302;28;83314;-93
2021/10/04 00:33:18;;;;;;;;;;;13.40;99.90;13.30;99613.00;;;;341569;28;90565;-93
2021/10/04 00:33:30;;;;;;;;;;;13.40;99.90;13.40;99615.00;;;;343264;28;83821;-93
2021/10/04 00:33:42;;;;;;;;;;;13.30;99.90;13.50;99617.00;;;;342865;28;91721;-93
2021/10/04 00:33:55;;;;;;;;;;;13.30;99.90;13.40;99611.00;;;;343329;28;82468;-93
2021/10/04 00:34:07;;;;;;;;;;;13.40;99.90;13.40;99617.00;;;;342825;28;91696;-93
2021/10/04 00:34:18;;;;;;;;;;;13.30;99.90;13.50;99622.00;;;;344715;28;83352;-93
2021/10/04 00:34:30;;;;;;;;;;;13.30;99.90;13.50;99618.00;;;;342865;28;90670;-93
2021/10/04 00:34:42;;;;;;;;;;;13.30;99.90;13.40;99621.00;;;;341917;28;82516;-93
2021/10/04 00:34:54;;;;;;;;;;;13.30;99.90;13.40;99623.00;;;;342826;28;91695;-93
2021/10/04 00:35:06;;;;;;;;;;;13.30;99.90;13.30;99612.00;;;;343351;28;82562;-93
2021/10/04 00:35:19;;;;;;;;;;;13.30;99.90;13.40;99613.00;;;;341480;28;91206;-93
2021/10/04 00:35:33;;;;;;;;;;;13.30;99.90;13.60;99624.00;;;;344682;28;82490;-93
2021/10/04 00:35:45;;;;;;;;;;;13.30;99.90;13.40;99621.00;;;;342869;28;90672;-93
2021/10/04 00:35:57;;;;;;;;;;;13.30;99.90;13.50;99626.00;;;;343360;28;83430;-93
2021/10/04 00:36:09;;;;;;;;;;;13.30;99.90;13.50;99626.00;;;;342900;28;90508;-93
2021/10/04 00:36:21;;;;;;;;;;;13.30;99.90;13.50;99619.00;;;;343241;28;83410;-94
2021/10/04 00:36:33;;;;;;;;;;;13.30;99.90;13.50;99624.00;;;;342800;28;92767;-93
2021/10/04 00:36:44;;;;;;;;;;;13.30;99.90;13.40;99619.00;;;;343277;28;83395;-93
2021/10/04 00:36:56;;;;;;;;;;;13.30;99.90;13.50;99627.00;;;;342922;28;90356;-93
2021/10/04 00:37:08;;;;;;;;;;;13.20;99.90;13.40;99626.00;;;;343412;28;82343;-93
2021/10/04 00:37:20;;;;;;;;;;;13.20;99.90;13.40;99625.00;;;;344274;28;91588;-93
2021/10/04 00:37:32;;;;;;;;;;;13.20;99.90;13.40;99619.00;;;;341917;28;83360;-93
2021/10/04 00:37:44;;;;;;;;;;;13.30;99.90;13.50;99623.00;;;;341559;28;91998;-93
2021/10/04 00:37:58;;;;;;;;;;;13.30;99.90;13.60;99619.00;;;;343338;28;82393;-93
2021/10/04 00:38:10;;;;;;;;;;;13.30;99.90;13.60;99618.00;;;;344256;28;90540;-93
2021/10/04 00:38:22;;;;;;;;;;;13.30;99.90;13.60;99613.00;;;;346051;28;83400;-93
2021/10/04 00:38:34;;;;;;;;;;;13.30;99.90;13.40;99615.00;;;;341452;28;91862;-93
2021/10/04 00:38:46;;;;;;;;;;;13.30;99.90;13.50;99615.00;;;;344620;28;83500;-92
2021/10/04 00:38:58;;;;;;;;;;;13.30;99.90;13.40;99616.00;;;;341551;28;89192;-93
2021/10/04 00:39:10;;;;;;;;;;;13.20;99.90;13.40;99615.00;;;;340699;28;83366;-93
2021/10/04 00:39:21;;;;;;;;;;;13.30;99.90;13.40;99606.00;;;;345139;28;90376;-93
2021/10/04 00:39:35;;;;;;;;;;;13.30;99.90;13.40;99617.00;;;;344637;28;83385;-93
2021/10/04 00:39:47;;;;;;;;;;;13.30;99.90;13.40;99614.00;;;;342907;28;90251;-93
2021/10/04 00:39:59;;;;;;;;;;;13.30;99.90;13.50;99610.00;;;;346051;28;83346;-93
2021/10/04 00:40:13;;;;;;;;;;;13.30;99.90;13.50;99619.00;;;;344251;28;90629;-93
2021/10/04 00:40:29;;;;;;;;;;;13.30;99.90;13.40;99612.00;;;;344652;28;83692;-93
2021/10/04 00:40:41;;;;;;;;;;;13.20;99.90;13.40;99615.00;;;;342791;28;92458;-93
2021/10/04 00:40:53;;;;;;;;;;;13.30;99.90;13.40;99611.00;;;;346005;28;83428;-93
2021/10/04 00:41:05;;;;;;;;;;;13.20;99.90;13.40;99612.00;;;;344251;28;91433;-93
2021/10/04 00:41:16;;;;;;;;;;;13.20;99.90;13.40;99616.00;;;;343305;28;83411;-93
2021/10/04 00:41:28;;;;;;;;;;;13.20;99.90;13.30;99620.00;;;;344222;28;91931;-93
2021/10/04 00:41:41;;;;;;;;;;;13.20;99.90;13.30;99621.00;;;;346022;28;82544;-93
2021/10/04 00:41:53;;;;;;;;;;;13.20;99.90;13.30;99623.00;;;;345596;28;90458;-93
2021/10/04 00:42:04;;;;;;;;;;;13.20;99.90;13.30;99627.00;;;;343277;28;82554;-93
2021/10/04 00:42:16;;;;;;;;;;;13.20;99.90;13.40;99624.00;;;;344245;28;90209;-94
2021/10/04 00:42:28;;;;;;;;;;;13.20;99.90;13.40;99626.00;;;;346070;28;83395;-93
2021/10/04 00:42:40;;;;;;;;;;;13.20;99.90;13.50;99621.00;;;;344144;28;92837;-93
2021/10/04 00:42:52;;;;;;;;;;;13.20;99.90;13.40;99624.00;;;;341918;28;82618;-93
2021/10/04 00:43:04;;;;;;;;;;;13.20;99.90;13.50;99623.00;;;;342930;28;91800;-93
2021/10/04 00:43:17;;;;;;;;;;;13.20;99.90;13.60;99622.00;;;;341977;28;82426;-93
2021/10/04 00:43:28;;;;;;;;;;;13.20;99.90;13.60;99623.00;;;;342829;28;91603;-93
2021/10/04 00:43:40;;;;;;;;;;;13.20;99.90;13.50;99624.00;;;;344693;28;82554;-93
2021/10/04 00:43:52;;;;;;;;;;;13.30;99.90;13.50;99621.00;;;;341560;28;89970;-93
2021/10/04 00:44:05;;;;;;;;;;;13.20;99.90;13.50;99628.00;;;;344592;28;82474;-93
2021/10/04 00:44:16;;;;;;;;;;;13.20;99.90;13.50;99625.00;;;;344240;28;90796;-93
2021/10/04 00:44:28;;;;;;;;;;;13.20;99.90;13.50;99625.00;;;;341991;28;83365;-93
2021/10/04 00:44:40;;;;;;;;;;;13.20;99.90;13.50;99625.00;;;;344151;28;91385;-93
2021/10/04 00:44:52;;;;;;;;;;;13.20;99.90;13.40;99621.00;;;;343326;28;82549;-93
2021/10/04 00:45:06;;;;;;;;;;;13.20;99.90;13.60;99627.00;;;;344245;28;90275;-93
2021/10/04 00:45:18;;;;;;;;;;;13.20;99.90;13.50;99624.00;;;;344733;28;83337;-93
2021/10/04 00:45:30;;;;;;;;;;;13.20;99.90;13.50;99620.00;;;;344288;28;90195;-93
2021/10/04 00:45:42;;;;;;;;;;;13.20;99.90;13.40;99619.00;;;;343132;28;83338;-94
2021/10/04 00:45:54;;;;;;;;;;;13.20;99.90;13.60;99627.00;;;;345656;28;91536;-93
2021/10/04 00:46:06;;;;;;;;;;;13.20;99.90;13.60;99623.00;;;;344593;28;82584;-93
2021/10/04 00:46:18;;;;;;;;;;;13.20;99.90;13.60;99626.00;;;;342836;28;92066;-93
2021/10/04 00:46:30;;;;;;;;;;;13.20;99.90;13.60;99620.00;;;;343355;28;82451;-93
2021/10/04 00:46:42;;;;;;;;;;;13.20;99.90;13.70;99624.00;;;;345512;28;92834;-93
2021/10/04 00:46:54;;;;;;;;;;;13.20;99.90;13.50;99620.00;;;;343277;28;83432;-93
2021/10/04 00:47:06;;;;;;;;;;;13.30;99.90;13.40;99622.00;;;;342820;28;89885;-93
2021/10/04 00:47:18;;;;;;;;;;;13.20;99.90;13.40;99621.00;;;;343189;28;82486;-93
2021/10/04 00:47:29;;;;;;;;;;;13.20;99.90;13.50;99619.00;;;;344201;28;91379;-93
2021/10/04 00:47:42;;;;;;;;;;;13.20;99.90;13.40;99619.00;;;;341949;28;83332;-93
2021/10/04 00:47:54;;;;;;;;;;;13.20;99.90;13.40;99612.00;;;;342782;28;90827;-93
2021/10/04 00:48:05;;;;;;;;;;;13.20;99.90;13.40;99613.00;;;;345735;28;82659;-93
2021/10/04 00:48:17;;;;;;;;;;;13.20;99.90;13.40;99612.00;;;;344255;28;91700;-93
2021/10/04 00:48:29;;;;;;;;;;;13.20;99.90;13.40;99613.00;;;;344678;28;83358;-93
2021/10/04 00:48:41;;;;;;;;;;;13.20;99.90;13.40;99618.00;;;;342691;28;92308;-93
2021/10/04 00:48:53;;;;;;;;;;;13.20;99.90;13.40;99615.00;;;;343320;28;83433;-93
2021/10/04 00:49:05;;;;;;;;;;;13.20;99.90;13.30;99615.00;;;;342934;28;91322;-92
2021/10/04 00:49:17;;;;;;;;;;;13.20;99.90;13.20;99612.00;;;;344691;28;82679;-92
2021/10/04 00:49:30;;;;;;;;;;;13.20;99.90;13.20;99610.00;;;;345606;28;91307;-93
2021/10/04 00:49:42;;;;;;;;;;;13.20;99.90;13.20;99607.00;;;;343268;28;83486;-93
2021/10/04 00:49:54;;;;;;;;;;;13.20;99.90;13.30;99612.00;;;;346954;28;91719;-93
2021/10/04 00:50:07;;;;;;;;;;;13.20;99.90;13.20;99620.00;;;;343271;28;83345;-93
2021/10/04 00:50:20;;;;;;;;;;;13.20;99.90;13.30;99612.00;;;;342903;28;92051;-93
2021/10/04 00:50:32;;;;;;;;;;;13.20;99.90;13.40;99610.00;;;;344810;28;82448;-93
2021/10/04 00:50:45;;;;;;;;;;;13.20;99.90;13.40;99611.00;;;;342740;28;92684;-93
2021/10/04 00:50:57;;;;;;;;;;;13.20;99.90;13.50;99615.00;;;;344683;28;83390;-94
2021/10/04 00:51:09;;;;;;;;;;;13.10;99.90;13.60;99607.00;;;;343998;28;90847;-93
2021/10/04 00:51:21;;;;;;;;;;;13.20;99.90;13.40;99606.00;;;;344166;28;82557;-93
2021/10/04 00:51:33;;;;;;;;;;;13.20;99.90;13.40;99609.00;;;;347030;28;91629;-93
2021/10/04 00:51:45;;;;;;;;;;;13.20;99.90;13.20;99610.00;;;;344650;28;83339;-93
2021/10/04 00:51:56;;;;;;;;;;;13.20;99.90;13.20;99611.00;;;;344215;28;90427;-93
2021/10/04 00:52:08;;;;;;;;;;;13.20;99.90;13.30;99612.00;;;;343283;28;82534;-93
2021/10/04 00:52:20;;;;;;;;;;;13.20;99.90;13.40;99609.00;;;;345636;28;91537;-93
2021/10/04 00:52:32;;;;;;;;;;;13.20;99.90;13.50;99614.00;;;;343373;28;82480;-94
2021/10/04 00:52:44;;;;;;;;;;;13.20;99.90;13.50;99620.00;;;;346853;28;93182;-93
2021/10/04 00:52:56;;;;;;;;;;;13.20;99.90;13.40;99609.00;;;;344720;28;83308;-93
2021/10/04 00:53:08;;;;;;;;;;;13.20;99.90;13.50;99612.00;;;;347090;28;89780;-93
2021/10/04 00:53:20;;;;;;;;;;;13.20;99.90;13.60;99613.00;;;;344614;28;82561;-93
2021/10/04 00:53:31;;;;;;;;;;;13.20;99.90;13.50;99613.00;;;;342731;28;91566;-93
2021/10/04 00:53:43;;;;;;;;;;;13.20;99.90;13.50;99604.00;;;;344718;28;82473;-93
2021/10/04 00:53:56;;;;;;;;;;;13.20;99.90;13.40;99608.00;;;;344312;28;91103;-93
2021/10/04 00:54:08;;;;;;;;;;;13.20;99.90;13.30;99606.00;;;;344527;28;83522;-93
2021/10/04 00:54:20;;;;;;;;;;;13.10;99.90;13.30;99607.00;;;;342908;28;91949;-93
2021/10/04 00:54:32;;;;;;;;;;;13.20;99.90;13.30;99611.00;;;;343444;28;82512;-93
2021/10/04 00:54:43;;;;;;;;;;;13.20;99.90;13.30;99617.00;;;;342797;28;92351;-93
2021/10/04 00:54:55;;;;;;;;;;;13.20;99.90;13.40;99604.00;;;;344663;28;82453;-94
2021/10/04 00:55:08;;;;;;;;;;;13.10;99.90;13.40;99619.00;;;;345622;28;90641;-93
2021/10/04 00:55:20;;;;;;;;;;;13.20;99.90;13.30;99612.00;;;;341944;28;83375;-93
2021/10/04 00:55:32;;;;;;;;;;;13.10;99.90;13.40;99616.00;;;;341538;28;91054;-93
2021/10/04 00:55:44;;;;;;;;;;;13.20;99.90;13.50;99616.00;;;;344766;28;83352;-93
2021/10/04 00:55:55;;;;;;;;;;;13.10;99.90;13.40;99604.00;;;;344240;28;90808;-94
2021/10/04 00:56:07;;;;;;;;;;;13.20;99.90;13.30;99613.00;;;;343277;28;83416;-93
2021/10/04 00:56:22;;;;;;;;;;;13.20;99.90;13.20;99610.00;;;;342867;28;90966;-93
2021/10/04 00:56:34;;;;;;;;;;;13.20;99.90;13.30;99611.00;;;;343369;28;83339;-93
2021/10/04 00:56:46;;;;;;;;;;;13.10;99.90;13.30;99601.00;;;;342531;28;91872;-93
2021/10/04 00:56:57;;;;;;;;;;;13.20;99.90;13.30;99611.00;;;;344548;28;82496;-93
2021/10/04 00:57:09;;;;;;;;;;;13.10;99.90;13.30;99614.00;;;;342932;28;90771;-93
2021/10/04 00:57:21;;;;;;;;;;;13.10;99.90;13.30;99608.00;;;;344473;28;83546;-93
2021/10/04 00:57:35;;;;;;;;;;;13.10;99.90;13.40;99611.00;;;;342965;28;87622;-93
2021/10/04 00:57:47;;;;;;;;;;;13.10;99.90;13.30;99616.00;;;;343353;28;82502;-93
2021/10/04 00:57:59;;;;;;;;;;;13.10;99.90;13.40;99605.00;;;;342949;28;90343;-93
2021/10/04 00:58:11;;;;;;;;;;;13.10;99.90;13.40;99600.00;;;;343284;28;83465;-93
2021/10/04 00:58:23;;;;;;;;;;;13.10;99.90;13.40;99606.00;;;;342903;28;91398;-94
2021/10/04 00:58:35;;;;;;;;;;;13.10;99.90;13.40;99610.00;;;;345955;28;82539;-93
2021/10/04 00:58:47;;;;;;;;;;;13.10;99.90;13.40;99607.00;;;;344133;28;91509;-94
2021/10/04 00:58:59;;;;;;;;;;;13.20;99.90;13.40;99603.00;;;;344700;28;82505;-93
2021/10/04 00:59:11;;;;;;;;;;;13.10;99.90;13.40;99602.00;;;;344303;28;91683;-93
2021/10/04 00:59:23;;;;;;;;;;;13.10;99.90;13.40;99606.00;;;;343280;28;83453;-94
2021/10/04 00:59:35;;;;;;;;;;;13.10;99.90;13.30;99607.00;;;;344180;28;90365;-93
2021/10/04 00:59:47;;;;;;;;;;;13.10;99.90;13.20;99603.00;;;;344384;28;83296;-93
2021/10/04 00:59:59;;;;;;;;;;;13.10;99.90;13.30;99607.00;;;;342683;28;91534;-94